Weather observations for the past three days for
St. George, St. George Airport
Imperial (Metric)
Date Time (akdt) Wind (mph) Vis. (mi.) Weather Sky Cond. Temperature (ºF) Relative Humidity Wind Chill (°F) Heat Index (°F) Pressure Precipitation (in)
Air Dwpt 6 hour altimeter (in) sea level (mb) 1 hr 3 hr 6 hr
Max. Min.
07 10:53 E 18 G 30 3.00 Light Snow Fog/Mist OVC012 30.9 28 89% 20 30.01 1014.9
07 09:53 E 14 9.00 Overcast OVC016 30 27 30 28.9 88% 20 30.01 1014.9
07 08:53 E 13 8.00 Overcast OVC015 30 26.1 85% 21 30 1014.8
07 07:53 E 13 5.00 Light Snow Fog/Mist OVC015 30 26.1 85% 21 30.01 1014.9
07 06:53 E 16 10.00 Overcast OVC016 30 25 82% 19 30.01 1015.1
07 05:53 E 14 10.00 Overcast OVC019 30 26.1 85% 20 30.02 1015.2
07 04:53 E 13 7.00 Overcast BKN017 OVC022 30 28 92% 21 30.02 1015.4
07 03:53 E 12 4.00 Light Snow Fog/Mist BKN013 OVC023 30 28 33.1 30 92% 21 30.03 1015.6
07 02:53 E 9 4.00 Light Snow Fog/Mist FEW011 BKN016 OVC025 30 28 92% 22 30.03 1015.8
07 01:53 E 12 5.00 Light Snow Fog/Mist SCT013 OVC023 30 28 92% 21 30.03 1015.8
07 00:50 E 13 2.50 Light Snow Fog/Mist BKN010 OVC014 30.9 28.9 92% 22 30.03 1015.8
06 23:53 E 13 10.00 Mostly Cloudy FEW009 BKN017 BKN022 30.9 28.9 92% 22 30.03 1015.8
06 22:53 E 12 4.00 Light Snow Fog/Mist SCT016 OVC024 30.9 28.9 92% 22 30.03 1015.7
06 21:53 E 12 4.00 Light Snow OVC020 33.1 28 37.9 33.1 82% 25 30.04 1016.0
06 20:53 E 16 10.00 Overcast OVC020 34 27 76% 24 30.04 1016.0
06 19:53 E 14 10.00 Overcast OVC017 34 27 76% 25 30.04 1015.9
06 18:53 E 14 G 30 10.00 Overcast OVC015 35.1 28 76% 27 30.03 1015.8
06 17:53 E 14 10.00 Overcast OVC021 36 28 73% 28 30.04 1016.1
06 16:53 E 12 10.00 Overcast BKN019 OVC025 37.9 28 68% 31 30.06 1016.6
06 15:53 E 12 10.00 Overcast OVC020 36 27 36 32 70% 29 30.06 1016.9
06 14:53 E 13 10.00 Overcast OVC022 36 27 70% 28 30.08 1017.3
06 13:53 E 15 G 24 10.00 Overcast BKN021 OVC026 36 28 73% 27 30.08 1017.4
06 12:53 E 13 10.00 Overcast FEW015 OVC021 34 28 79% 26 30.09 1017.8
06 11:53 E 16 10.00 Overcast OVC023 34 30 85% 24 30.1 1017.9
06 10:53 E 14 1.50 Light Snow Fog/Mist FEW015 OVC023 33.1 30 89% 24 30.11 1018.3
06 09:53 E 12 10.00 Overcast OVC025 33.1 30.9 33.1 24.1 92% 25 30.11 1018.4
06 08:53 E 10 10.00 Overcast OVC027 32 30.9 96% 24 30.1 1018.2
06 07:53 E 8 10.00 Overcast OVC024 32 30 92% 25 30.1 1018.1
06 06:53 E 8 4.00 Light Snow Fog/Mist OVC021 30.9 30 96% 24 30.1 1018.2
06 05:53 E 7 10.00 Mostly Cloudy BKN021 28 27 96% 22 30.1 1018.2
06 04:53 NE 5 10.00 Overcast OVC017 28.9 28 96% 25 30.12 1018.6
06 03:53 NE 3 10.00 Partly Cloudy SCT012 25 24.1 36 23 96% 30.13 1018.9
06 02:53 NE 3 10.00 Partly Cloudy SCT010 24.1 23 96% 30.13 1019.2
06 01:53 NE 5 10.00 A Few Clouds FEW010 26.1 26.1 100% 21 30.14 1019.5
06 00:53 NE 5 10.00 Fair CLR 26.1 25 96% 21 30.14 1019.4
05 23:53 E 5 10.00 Fair CLR 28 26.1 92% 24 30.14 1019.5
05 22:53 Calm 10.00 Fair CLR 32 28 85% 30.15 1019.7
05 21:53 N 5 10.00 Fair CLR 36 30 39.9 36 79% 33 30.15 1019.8
05 20:53 N 9 10.00 Fair CLR 37 30.9 79% 31 30.15 1019.7
05 19:53 W 8 10.00 Mostly Cloudy BKN024 37.9 33.1 83% 33 30.15 1019.7
05 18:53 W 9 10.00 Mostly Cloudy BKN021 BKN043 39 30 70% 33 30.15 1019.9
05 17:53 NW 10 10.00 Mostly Cloudy FEW019 BKN048 39.9 26.1 58% 34 30.15 1019.9
05 16:53 N 10 10.00 Partly Cloudy SCT014 39 30.9 73% 33 30.16 1020.1
05 15:53 N 12 G 22 10.00 Overcast SCT015 OVC047 39 30 39.9 33.1 70% 32 30.16 1020.2
05 14:53 N 12 10.00 Mostly Cloudy FEW013 BKN046 37.9 30 73% 31 30.17 1020.3
05 13:53 N 15 10.00 Mostly Cloudy BKN042 37.9 30 73% 30 30.16 1020.2
05 12:53 N 9 10.00 Mostly Cloudy FEW011 BKN045 37 30.9 79% 31 30.16 1020.2
05 11:53 N 9 10.00 Overcast OVC010 35.1 30.9 85% 29 30.17 1020.4
05 10:53 N 10 10.00 Overcast BKN010 OVC039 34 30.9 89% 27 30.17 1020.4
05 09:53 N 9 10.00 Overcast OVC007 33.1 30 33.1 32 89% 26 30.16 1020.2
05 08:53 N 8 G 18 10.00 Overcast OVC006 33.1 30.9 92% 27 30.15 1019.9
05 07:53 NW 16 10.00 Overcast OVC008 33.1 30 89% 23 30.14 1019.4
05 06:53 NW 8 10.00 Overcast OVC008 33.1 30 89% 27 30.13 1019.1
05 05:53 N 10 G 23 10.00 Overcast OVC016 32 27 82% 24 30.11 1018.5
05 04:53 NW 13 G 22 4.00 Light Snow Fog/Mist OVC012 32 28.9 88% 23 30.11 1018.4
05 03:53 N 17 G 37 6.00 Light Snow Fog/Mist BKN011 BKN017 OVC023 33.1 28.9 33.1 32 85% 23 30.1 1018.2
05 02:53 N 16 G 29 8.00 Light Snow BKN016 OVC021 33.1 28 82% 23 30.1 1018.2
05 01:53 N 14 G 26 10.00 Overcast OVC013 33.1 27 78% 24 30.11 1018.3
05 00:53 N 15 G 39 10.00 Overcast BKN015 OVC020 33.1 28 82% 24 30.1 1018.0
04 23:53 N 16 G 30 10.00 Overcast OVC013 33.1 28 82% 23 30.09 1017.8
04 22:53 N 24 G 40 10.00 Overcast and Breezy OVC011 32 28 85% 20 30.07 1017.0
04 21:53 N 14 G 31 10.00 Overcast OVC009 33.1 28.9 37 33.1 85% 24 30.06 1016.8
04 20:53 N 20 G 36 10.00 Overcast OVC009 34 30 85% 23 30.05 1016.4
04 19:53 N 23 G 33 10.00 Overcast and Breezy OVC009 34 28.9 82% 23 30.05 1016.3
04 18:53 N 21 G 33 10.00 Overcast and Breezy BKN009 OVC018 35.1 30 82% 25 30.04 1016.0
04 17:53 N 23 G 39 10.00 Overcast and Breezy OVC009 34 30 85% 23 30.04 1015.9
04 16:53 N 23 G 35 10.00 Fair and Breezy CLR 36 27 70% 25 30.04 1016.1
04 15:53 N 23 G 36 10.00 A Few Clouds and Breezy FEW010 35.1 28 35.1 28.9 76% 24 30.04 1016.1
04 14:53 N 22 G 33 10.00 A Few Clouds and Breezy FEW010 34 28 79% 23 30.05 1016.4
04 13:53 N 23 G 38 10.00 Mostly Cloudy and Breezy BKN009 34 28 79% 23 30.05 1016.4
04 12:53 N 25 G 37 10.00 Mostly Cloudy and Breezy BKN010 32 27 82% 19 30.06 1016.6
04 11:53 NE 26 G 37 10.00 Mostly Cloudy and Windy BKN012 30.9 26.1 82% 18 30.05 1016.4
Date Time (akdt) Wind (mph) Vis. (mi.) Weather Sky Cond. Air Dwpt Max. Min. Relative Humidity Wind Chill (°F) Heat Index (°F) altimeter (in) sea level (mb) 1 hr 3 hr 6 hr
6 hour
Temperature (ºF) Pressure Precipitation (in)